Date,TemperatureHighF,TemperatureAvgF,TemperatureLowF,DewpointHighF,DewpointAvgF,DewpointLowF,HumidityHigh,HumidityAvg,HumidityLow,PressureMaxIn,PressureMinIn,WindSpeedMaxMPH,WindSpeedAvgMPH,GustSpeedMaxMPH,PrecipitationSumIn
2013-1-1,77,74,72,77,74,72,100,100,100,30.08,29.95,10,5,14,0.00
2013-1-2,74,74,74,74,74,74,100,100,100,29.97,29.96,0,0,0,0.00
2013-1-3,79,76,74,79,76,74,100,100,100,30.04,29.95,5,1,8,0.00
2013-1-4,80,75,73,80,75,73,100,100,100,30.12,30.02,4,1,7,0.03
2013-1-5,79,75,72,79,74,-100,100,99,100,30.13,30.04,8,3,13,0.01
2013-1-6,80,77,75,80,77,75,100,100,100,30.08,29.96,9,5,14,0.00
2013-1-7,80,77,75,80,77,75,100,100,100,30.05,29.97,8,3,11,0.00
2013-1-8,80,78,74,80,78,74,100,100,100,30.09,29.96,9,4,14,0.00
2013-1-9,80,78,77,80,78,77,100,100,100,30.15,30.03,11,8,19,0.00
2013-1-10,79,77,76,79,77,76,100,100,100,30.17,30.05,13,9,20,0.00
2013-1-11,80,77,75,80,77,75,100,100,100,30.13,30.04,11,8,17,0.00
2013-1-12,79,77,75,79,77,75,100,100,100,30.07,29.98,9,6,13,0.00
2013-1-13,78,76,75,78,76,75,100,100,100,30.02,29.95,11,7,17,0.01
2013-1-14,79,76,75,79,76,75,100,100,100,30.06,30.00,10,6,16,0.00
2013-1-15,79,76,75,79,76,75,100,100,100,30.04,29.94,7,6,13,0.00
2013-1-16,80,77,74,80,77,74,100,100,100,30.01,29.92,8,4,11,0.00
2013-1-17,77,73,68,77,73,68,100,100,100,30.03,29.93,15,8,25,0.23
2013-1-18,68,64,60,68,64,60,100,100,100,30.15,30.03,13,6,21,0.00
2013-1-19,73,70,66,73,69,-100,100,99,100,30.12,30.01,7,2,11,0.00
2013-1-20,75,72,69,75,72,69,100,100,100,30.06,29.92,7,2,9,0.01
2013-1-21,78,73,70,78,73,70,100,100,100,30.00,29.92,10,3,13,0.00
2013-1-22,72,70,67,72,69,-100,100,99,100,30.10,29.94,13,8,18,0.00
2013-1-23,73,69,66,73,68,-100,100,99,100,30.18,30.08,11,7,18,0.00
2013-1-24,73,69,65,73,69,65,100,100,100,30.20,30.09,12,6,17,0.00
2013-1-25,75,70,66,75,70,66,100,100,100,30.19,30.08,10,6,16,0.00
2013-1-26,75,70,66,75,70,66,100,100,100,30.14,30.06,11,5,21,0.00
2013-1-27,76,73,71,76,73,71,100,100,100,30.15,30.07,12,6,18,0.00
2013-1-28,77,75,74,77,75,74,100,100,100,30.20,30.11,10,8,14,0.00
2013-1-29,78,76,74,78,76,74,100,100,100,30.13,30.02,12,7,14,0.00
2013-1-30,77,76,74,77,76,74,100,100,100,30.03,29.88,13,8,21,0.00
2013-1-31,77,72,67,77,72,67,100,100,100,30.08,29.88,13,6,18,0.01
2013-2-1,72,66,60,72,66,60,100,100,100,30.16,30.05,15,10,25,0.00
2013-2-2,73,68,63,73,68,63,100,100,100,30.15,30.03,12,6,20,0.00
2013-2-3,71,68,65,71,68,65,100,100,100,30.09,29.98,10,6,16,0.00
2013-2-4,72,67,62,72,67,62,100,100,100,30.05,29.93,11,6,18,0.00
2013-2-5,77,72,66,77,72,66,100,100,100,29.99,29.92,6,1,8,0.00
2013-2-6,78,74,69,78,74,69,100,100,100,30.00,29.92,7,3,12,0.00
2013-2-7,78,75,72,78,75,72,100,100,100,29.99,29.87,9,3,12,0.00
2013-2-8,81,76,71,81,76,71,100,100,100,29.97,29.86,8,4,13,0.00
2013-2-9,78,73,69,78,73,69,100,100,100,30.06,29.94,10,7,16,0.00
2013-2-10,77,75,73,77,75,73,100,100,100,30.13,30.03,11,8,17,0.00
2013-2-11,78,75,73,78,75,73,100,100,100,30.11,30.02,12,7,18,0.00
2013-2-12,80,77,75,80,77,75,100,100,100,30.03,29.90,10,6,14,0.00
2013-2-13,80,77,75,80,77,75,100,100,100,29.94,29.85,7,3,12,0.00
2013-2-14,81,77,67,81,77,67,100,100,100,29.91,29.83,14,4,19,0.17
2013-2-15,75,70,66,75,70,66,100,100,100,29.92,29.84,11,4,17,0.29
2013-2-16,71,68,65,71,68,65,100,100,100,30.00,29.80,18,10,26,0.21
2013-2-17,66,57,52,66,57,52,100,100,100,30.21,29.99,19,9,26,0.00
2013-2-18,70,62,54,70,62,54,100,100,100,30.20,30.09,12,8,17,0.00
2013-2-19,76,71,67,76,71,67,100,100,100,30.09,30.00,11,5,17,0.25
2013-2-20,75,71,67,75,71,67,100,100,100,30.03,29.91,8,2,11,0.02
2013-2-21,79,75,70,79,75,70,100,100,100,29.99,29.91,10,4,12,0.00
2013-2-22,80,76,75,80,76,75,100,100,100,30.00,29.90,9,5,13,0.00
2013-2-23,81,77,76,81,77,76,100,100,100,29.95,29.85,12,5,16,0.00
2013-2-24,81,78,75,81,78,75,100,100,100,29.92,29.83,3,1,6,0.00
2013-2-25,81,78,76,81,78,76,100,100,100,29.83,29.72,12,5,16,0.00
2013-2-26,82,78,77,82,78,77,100,100,100,29.84,29.72,12,7,17,0.00
2013-2-27,81,77,73,81,77,73,100,100,100,29.88,29.79,9,3,13,0.00
2013-2-28,74,70,66,74,70,66,100,100,100,29.92,29.83,12,5,17,0.06
2013-3-1,70,66,62,70,66,62,100,100,100,29.91,29.83,11,4,16,0.01
2013-3-2,66,61,59,66,61,59,100,100,100,29.97,29.88,13,8,20,0.03
2013-3-3,63,59,53,63,59,53,100,100,100,30.07,29.86,13,6,17,0.03
2013-3-4,63,58,53,63,58,53,100,100,100,30.15,30.03,11,5,18,0.00
2013-3-5,73,66,58,73,66,58,100,100,100,30.09,30.01,7,2,11,0.00
2013-3-6,76,68,63,76,68,63,100,100,100,30.04,29.96,15,6,21,0.00
2013-3-7,63,60,56,63,60,56,100,100,100,30.13,30.00,14,8,18,0.00
2013-3-8,73,65,59,73,65,59,100,100,100,30.11,30.03,10,5,14,0.00
2013-3-9,74,68,64,74,68,64,100,100,100,30.09,30.01,11,6,13,0.00
2013-3-10,73,71,67,73,71,67,100,100,100,30.06,29.95,10,6,18,0.00
2013-3-11,76,73,70,76,73,70,100,100,100,29.99,29.86,10,7,18,0.00
2013-3-12,78,74,69,78,74,69,100,100,100,29.94,29.82,12,7,22,0.00
2013-3-13,73,68,63,73,68,63,100,100,100,30.04,29.91,12,8,21,0.00
2013-3-14,70,66,60,70,66,60,100,100,100,30.12,30.00,15,10,27,0.00
2013-3-15,72,65,60,72,65,60,100,100,100,30.17,30.05,14,7,25,0.00
2013-3-16,74,69,64,74,69,64,100,100,100,30.10,30.01,7,4,14,0.00
2013-3-17,76,73,70,76,73,70,100,100,100,30.04,29.92,9,6,17,0.00
2013-3-18,78,75,73,78,74,-100,100,100,100,29.98,29.87,14,6,21,0.00
2013-3-19,74,72,67,74,72,67,100,100,100,29.94,29.83,13,3,25,0.63
2013-3-20,76,72,68,76,72,68,100,100,100,29.91,29.76,12,3,21,0.00
2013-3-21,74,71,69,74,71,69,100,100,100,29.87,29.75,9,2,16,0.00
2013-3-22,79,75,70,79,75,70,100,100,100,29.90,29.80,9,3,14,0.00
2013-3-23,80,77,75,80,77,75,100,100,100,29.89,29.74,8,4,14,0.00
2013-3-24,84,79,76,84,79,76,100,100,100,29.80,29.64,16,6,27,0.00
2013-3-25,79,75,67,79,74,-100,100,100,100,29.92,29.68,15,6,24,0.27
2013-3-26,72,64,60,72,64,60,100,100,100,30.13,29.91,18,13,32,0.00
2013-3-27,63,59,52,63,59,52,100,100,100,30.18,30.09,13,9,26,0.00
2013-3-28,70,64,59,70,64,59,100,100,100,30.17,30.08,12,7,24,0.00
2013-3-29,73,68,64,73,68,64,100,100,100,30.19,30.10,11,7,21,0.00
2013-3-30,74,71,66,74,71,66,100,100,100,30.15,30.05,9,5,17,0.00
2013-3-31,77,74,71,77,74,71,100,100,100,30.09,29.95,9,5,17,0.00
2013-4-1,80,76,72,80,76,72,100,100,100,29.99,29.90,7,3,17,0.00
2013-4-2,79,75,72,79,75,72,100,100,100,30.01,29.92,5,1,10,0.00
2013-4-3,80,76,73,80,76,73,100,100,100,29.98,29.89,9,5,17,0.00
2013-4-4,81,78,75,81,78,75,100,100,100,29.95,29.84,9,5,16,0.00
2013-4-5,78,72,66,78,72,66,100,100,100,29.91,29.74,16,6,25,1.43
2013-4-6,75,69,65,75,69,65,100,100,100,29.99,29.86,14,8,26,0.00
2013-4-7,78,75,73,78,74,-100,100,99,100,30.02,29.90,11,8,19,0.00
2013-4-8,79,76,74,79,76,74,100,100,100,30.02,29.92,11,7,16,0.00
2013-4-9,80,77,75,80,77,75,100,100,100,30.03,29.95,13,7,24,0.00
2013-4-10,81,78,76,81,78,76,100,100,100,29.99,29.88,12,7,17,0.00
2013-4-11,80,79,76,80,79,76,100,100,100,29.91,29.79,14,10,21,0.01
2013-4-12,83,80,78,83,80,78,100,100,100,29.89,29.79,13,4,17,0.00
2013-4-13,85,80,76,85,80,76,100,100,100,29.89,29.81,10,2,13,0.04
2013-4-14,83,80,78,83,80,78,100,100,100,29.88,29.80,10,6,14,0.00
2013-4-15,84,82,79,84,82,79,100,100,100,29.95,29.83,9,2,14,0.00
2013-4-16,84,81,79,84,81,79,100,100,100,30.00,29.91,10,5,17,0.00
2013-4-17,83,81,79,83,81,79,100,100,100,30.00,29.91,10,6,14,0.00
2013-4-18,83,80,75,83,80,75,100,100,100,29.95,29.87,11,8,17,0.05
2013-4-19,84,81,79,84,81,79,100,100,100,29.95,29.86,14,8,18,0.00
2013-4-20,85,81,78,85,81,78,100,100,100,29.98,29.87,8,3,13,0.00
2013-4-21,83,79,73,83,79,73,100,100,100,29.98,29.90,10,3,15,0.06
2013-4-22,81,77,72,81,77,72,100,100,100,29.97,29.84,11,2,11,0.86
2013-4-23,84,78,74,84,78,74,100,100,100,29.97,29.86,12,6,18,0.00
2013-4-24,81,78,75,81,78,75,100,100,100,30.03,29.93,13,7,18,0.00
2013-4-25,81,78,75,81,78,75,100,100,100,30.09,29.98,12,6,17,0.00
2013-4-26,80,77,74,80,77,74,100,100,100,30.12,30.01,12,6,19,0.00
2013-4-27,80,77,74,80,77,74,100,100,100,30.09,29.96,11,7,18,0.00
2013-4-28,81,78,72,81,78,72,100,100,100,29.99,29.88,12,8,18,0.03
2013-4-29,81,78,72,81,78,72,100,100,100,29.92,29.84,13,7,20,0.27
2013-4-30,83,80,75,83,79,-100,100,100,100,29.90,29.82,10,6,18,0.03
2013-5-1,82,80,76,82,80,76,100,100,100,29.90,29.80,8,3,14,0.18
2013-5-2,80,74,69,80,74,69,100,100,100,29.86,29.72,20,5,25,2.52
2013-5-3,82,77,72,82,77,72,100,100,100,29.74,29.63,7,3,12,0.03
2013-5-4,80,77,75,80,77,75,100,100,100,29.76,29.63,13,8,19,0.00
2013-5-5,76,74,73,76,74,73,100,100,100,29.86,29.72,12,8,24,0.00
2013-5-6,78,75,71,78,75,71,100,100,100,29.95,29.85,9,4,16,0.00
2013-5-7,79,76,72,79,76,72,100,100,100,30.00,29.89,5,1,8,0.00
2013-5-8,80,76,71,80,75,-100,100,99,100,30.05,29.97,3,1,7,0.00
2013-5-9,83,78,74,83,78,74,100,100,100,30.06,29.96,8,4,13,0.00
2013-5-10,84,81,78,84,81,78,100,100,100,30.03,29.92,7,3,11,0.00
2013-5-11,84,81,79,84,80,-100,100,99,100,29.99,29.91,10,4,17,0.00
2013-5-12,84,81,79,84,81,79,100,100,100,29.97,29.89,11,3,17,0.00
2013-5-13,84,81,78,84,81,78,100,100,100,30.02,29.91,10,3,13,0.00
2013-5-14,81,78,76,81,78,76,100,100,100,30.06,29.95,14,9,20,0.00
2013-5-15,80,77,75,80,77,75,100,100,100,30.07,29.98,12,7,18,0.00
2013-5-16,81,78,76,81,78,76,100,100,100,30.01,29.92,10,6,18,0.00
2013-5-17,83,80,76,83,80,76,100,100,100,30.00,29.92,7,2,11,0.00
2013-5-18,84,81,79,84,81,79,100,100,100,30.01,29.94,7,3,12,0.00
2013-5-19,83,81,79,83,81,79,100,100,100,30.00,29.90,8,4,12,0.00
2013-5-20,84,80,69,84,80,69,100,100,100,29.96,29.89,18,5,18,0.63
2013-5-21,83,80,78,83,80,78,100,100,100,29.93,29.82,8,4,12,0.01
2013-5-22,86,82,79,86,82,79,100,100,100,29.88,29.80,8,4,11,0.00
2013-5-23,86,82,80,86,82,80,100,100,100,29.94,29.84,9,4,12,0.00
2013-5-24,86,82,79,86,82,79,100,100,100,29.99,29.88,10,2,16,0.00
2013-5-25,85,82,80,85,82,80,100,100,100,30.04,29.93,14,5,20,0.00
2013-5-26,84,80,78,84,80,78,100,100,100,30.06,29.99,12,8,21,0.03
2013-5-27,81,77,72,81,77,72,100,100,100,30.03,29.92,18,8,30,1.41
2013-5-28,81,79,77,81,79,77,100,100,100,29.99,29.91,13,7,18,0.00
2013-5-29,80,76,72,80,76,72,100,100,100,29.96,29.88,13,6,17,0.96
2013-5-30,79,76,73,79,76,73,100,100,100,29.94,29.87,11,4,15,1.15
2013-5-31,84,79,75,84,79,75,100,100,100,29.94,29.88,8,2,12,0.00
2013-6-1,84,79,75,84,79,75,100,100,100,29.95,29.85,17,1,20,2.73
2013-6-2,83,78,74,83,78,74,100,100,100,29.93,29.84,14,2,18,0.34
2013-6-3,81,78,74,81,78,74,100,100,100,29.94,29.83,13,2,18,0.90
2013-6-4,81,79,74,81,79,74,100,100,100,29.94,29.86,11,4,15,0.35
2013-6-5,83,82,77,83,82,77,100,100,100,29.91,29.77,10,6,17,0.01
2013-6-6,84,81,74,84,81,74,100,100,100,29.82,29.71,17,8,21,0.16
2013-6-7,85,81,74,85,81,74,100,100,100,29.93,29.78,12,6,14,0.05
2013-6-8,86,82,78,86,82,78,100,100,100,29.99,29.89,7,4,10,0.06
2013-6-9,85,82,78,85,82,78,100,100,100,29.99,29.91,9,6,14,0.05
2013-6-10,85,83,79,85,83,79,100,100,100,29.98,29.89,8,6,16,0.05
2013-6-11,86,83,79,86,83,79,100,100,100,29.98,29.90,8,2,10,0.02
2013-6-12,86,82,76,86,82,76,100,100,100,30.00,29.89,11,2,13,0.02
2013-6-13,85,82,79,85,82,79,100,100,100,29.97,29.87,7,2,11,0.03
2013-6-14,85,82,80,85,82,80,100,100,100,29.91,29.83,5,2,8,0.01
2013-6-15,87,83,81,87,83,81,100,100,100,29.96,29.85,4,1,7,0.02
2013-6-16,87,84,81,87,84,81,100,100,100,29.98,29.92,8,3,12,0.01
2013-6-17,86,84,82,86,84,82,100,100,100,29.98,29.90,9,5,14,0.00
2013-6-18,87,84,82,87,84,82,100,100,100,29.97,29.90,9,4,13,0.00
2013-6-19,87,84,82,87,84,82,100,100,100,29.95,29.89,8,4,11,0.06
2013-6-20,88,85,83,88,85,83,100,100,100,30.00,29.92,9,5,16,0.00
2013-6-21,87,84,82,87,84,82,100,100,100,30.02,29.93,8,5,13,0.00
2013-6-22,87,84,80,87,84,80,100,100,100,30.00,29.93,8,4,13,0.02
2013-6-23,85,83,79,85,83,79,100,100,100,30.02,29.93,10,6,14,0.06
2013-6-24,86,83,78,86,82,-100,100,99,100,30.06,29.97,13,6,14,0.06
2013-6-25,87,84,80,87,84,80,100,100,100,30.02,29.92,9,5,13,0.00
2013-6-26,87,84,82,87,84,82,100,100,100,29.98,29.90,9,5,13,0.00
2013-6-27,87,84,82,87,84,82,100,100,100,29.95,29.87,7,3,9,0.00
2013-6-28,87,84,80,87,84,80,100,100,100,29.90,29.80,6,1,9,0.00
2013-6-29,86,84,81,86,84,81,100,100,100,29.85,29.77,10,5,13,0.00
2013-6-30,85,83,78,85,83,78,100,100,100,29.87,29.78,17,10,21,0.19
2013-7-1,86,83,80,86,83,80,100,100,100,29.93,29.82,13,6,18,0.00
2013-7-2,87,82,75,87,82,75,100,100,100,30.01,29.87,12,4,16,0.04
2013-7-3,85,81,76,85,81,76,100,100,100,30.01,29.94,11,6,20,0.56
2013-7-4,86,83,80,86,83,80,100,100,100,30.02,29.94,13,8,18,0.00
2013-7-5,84,80,75,84,80,75,100,100,100,30.02,29.94,20,6,22,0.57
2013-7-6,85,82,80,85,82,80,100,100,100,30.00,29.91,10,6,14,0.09
2013-7-7,86,83,78,86,83,78,100,100,100,29.98,29.92,11,6,25,0.16
2013-7-8,86,83,78,86,83,78,100,100,100,30.04,29.96,10,6,14,0.10
2013-7-9,85,82,79,85,82,79,100,100,100,30.05,29.97,7,1,12,0.03
2013-7-10,86,82,78,86,82,78,100,100,100,30.00,29.92,9,1,12,0.00
2013-7-11,87,84,81,87,84,81,100,100,100,29.96,29.86,8,2,13,0.00
2013-7-12,86,83,80,86,83,80,100,100,100,29.90,29.83,9,3,13,0.00
2013-7-13,85,82,73,85,82,73,100,100,100,29.95,29.84,12,8,16,0.78
2013-7-14,85,81,75,85,80,-100,100,99,100,29.98,29.88,12,6,18,0.48
2013-7-15,83,78,73,83,78,73,100,100,100,29.99,29.91,13,4,18,0.35
2013-7-16,84,80,75,84,80,75,100,100,100,30.00,29.91,14,7,18,0.49
2013-7-17,81,78,75,81,78,75,100,100,100,30.03,29.93,11,3,15,0.82
2013-7-18,82,78,71,82,78,71,100,100,100,30.05,29.94,13,4,14,1.99
2013-7-19,86,83,78,86,83,78,100,100,100,30.02,29.94,8,4,12,0.00
2013-7-20,86,83,80,86,83,80,100,100,100,30.02,29.92,9,4,13,0.04
2013-7-21,87,84,82,87,84,82,100,100,100,30.05,29.96,7,4,12,0.00
2013-7-22,87,84,81,87,84,81,100,100,100,30.06,29.98,6,3,11,0.00
2013-7-23,87,84,82,87,84,82,100,100,100,30.03,29.92,6,2,10,0.00
2013-7-24,87,84,81,87,84,81,100,100,100,29.95,29.87,4,1,10,0.00
2013-7-25,87,84,81,87,84,81,100,100,100,29.97,29.85,8,2,12,0.00
2013-7-26,88,84,81,88,84,81,100,100,100,29.97,29.91,8,3,13,0.00
2013-7-27,88,84,81,88,84,81,100,100,100,29.94,29.87,8,2,13,0.03
2013-7-28,88,84,77,88,84,77,100,100,100,29.99,29.86,8,1,8,0.06
2013-7-29,88,85,83,88,85,83,100,100,100,30.03,29.92,8,2,13,0.00
2013-7-30,87,84,80,87,84,80,100,100,100,30.05,29.98,9,4,13,0.00
2013-7-31,88,85,83,88,85,83,100,100,100,30.01,29.89,10,7,16,0.09
2013-8-1,88,84,83,88,84,83,100,100,100,29.94,29.84,9,4,13,0.00
2013-8-2,88,85,82,88,84,-100,100,99,100,29.98,29.84,3,1,6,0.00
2013-8-3,88,85,83,88,85,83,100,100,100,30.04,29.95,7,2,10,0.00
2013-8-4,89,85,83,89,85,83,100,100,100,30.03,29.93,3,0,5,0.00
2013-8-5,89,86,82,89,86,82,100,100,100,29.98,29.89,5,2,8,0.00
2013-8-6,86,82,77,86,82,77,100,100,100,29.91,29.82,11,2,14,1.56
2013-8-7,88,84,78,88,84,78,100,100,100,29.87,29.81,12,2,12,0.12
2013-8-8,87,85,83,87,85,83,100,100,100,29.89,29.80,11,7,15,0.00
2013-8-9,86,83,78,86,83,78,100,100,100,29.93,29.83,12,6,22,0.01
2013-8-10,88,85,82,88,85,82,100,100,100,30.00,29.90,11,8,19,0.00
2013-8-11,88,85,82,88,85,82,100,100,100,30.03,29.95,11,8,18,0.06
2013-8-12,87,84,82,87,84,82,100,100,100,30.00,29.90,11,7,16,0.00
2013-8-13,88,85,83,88,85,83,100,100,100,29.94,29.87,8,4,13,0.00
2013-8-14,87,84,83,87,84,83,100,100,100,29.92,29.83,8,4,14,0.00
2013-8-15,87,83,79,87,83,79,100,100,100,29.96,29.87,9,2,13,0.11
2013-8-16,87,85,83,87,85,83,100,100,100,29.95,29.88,9,4,12,0.03
2013-8-17,88,85,84,88,85,84,100,100,100,29.96,29.89,9,5,12,0.00
2013-8-18,88,84,81,88,84,81,100,100,100,29.97,29.88,11,6,20,0.04
2013-8-19,88,84,77,88,84,77,100,100,100,29.96,29.86,13,5,17,0.11
2013-8-20,87,84,82,87,84,82,100,100,100,29.94,29.87,10,6,14,0.00
2013-8-21,88,84,78,88,84,78,100,100,100,29.96,29.87,15,6,16,0.18
2013-8-22,88,84,78,88,84,78,100,100,100,29.94,29.84,12,7,19,0.12
2013-8-23,87,85,81,87,85,81,100,100,100,29.91,29.83,7,4,12,0.03
2013-8-24,88,85,82,88,85,82,100,100,100,29.99,29.87,7,3,16,0.00
2013-8-25,88,85,83,88,85,83,100,100,100,30.03,29.92,8,3,12,0.00
2013-8-26,84,81,75,84,81,75,100,100,100,30.03,29.90,12,4,16,0.42
2013-8-27,81,80,73,81,80,73,100,100,100,29.97,29.87,14,3,14,0.12
2013-8-28,84,79,73,84,79,73,100,100,100,29.94,29.84,11,2,16,0.47
2013-8-29,86,83,79,86,83,79,100,100,100,29.94,29.86,3,0,6,0.00
2013-8-30,87,83,81,87,83,81,100,100,100,29.94,29.84,4,0,7,0.00
2013-8-31,88,84,80,88,84,80,100,100,100,29.90,29.83,6,1,10,0.04
2013-9-1,87,84,82,87,84,82,100,100,100,29.91,29.84,9,3,12,0.00
2013-9-2,88,84,83,88,84,83,100,100,100,29.95,29.85,7,2,9,0.00
2013-9-3,88,83,78,88,83,78,100,100,100,29.93,29.83,10,1,12,0.06
2013-9-4,88,85,81,88,85,81,100,100,100,29.95,29.84,10,4,12,0.00
2013-9-5,88,85,83,88,85,83,100,100,100,29.96,29.89,9,6,13,0.01
2013-9-6,89,85,83,89,85,83,100,100,100,29.93,29.83,8,5,13,0.00
2013-9-7,86,82,80,86,82,80,100,100,100,29.92,29.80,13,3,13,0.00
2013-9-8,86,83,79,86,83,79,100,100,100,29.86,29.76,8,2,10,0.00
2013-9-9,87,84,81,87,84,81,100,100,100,29.89,29.79,8,3,13,0.02
2013-9-10,87,84,77,87,84,77,100,100,100,29.92,29.83,10,5,16,0.26
2013-9-11,86,83,80,86,83,80,100,100,100,29.94,29.85,11,5,16,0.21
2013-9-12,86,82,76,86,82,76,100,100,100,29.92,29.79,12,1,15,0.21
2013-9-13,87,84,80,87,84,80,100,100,100,29.81,29.72,4,1,7,0.00
2013-9-14,88,84,81,88,84,81,100,100,100,29.87,29.74,9,2,12,0.00
2013-9-15,88,83,78,88,83,78,100,100,100,29.93,29.81,10,4,14,0.03
2013-9-16,84,80,74,84,80,74,100,100,100,29.98,29.84,16,4,22,0.56
2013-9-17,83,81,76,83,81,76,100,100,100,29.94,29.82,10,4,17,0.13
2013-9-18,84,82,79,84,82,79,100,100,100,29.91,29.81,9,2,12,0.00
2013-9-19,87,82,78,87,82,78,100,100,100,29.91,29.83,8,2,11,0.00
2013-9-20,85,82,79,85,82,79,100,100,100,29.90,29.80,11,5,16,0.00
2013-9-21,86,82,79,86,82,79,100,100,100,29.81,29.69,5,0,8,0.01
2013-9-22,87,85,82,87,85,82,100,100,100,29.80,29.69,7,3,12,0.00
2013-9-23,87,84,81,87,84,81,100,100,100,29.89,29.77,13,5,13,0.08
2013-9-24,88,85,83,88,85,83,100,100,100,29.89,29.81,8,3,12,0.01
2013-9-25,88,85,82,88,85,82,100,100,100,29.83,29.76,9,3,14,0.00
2013-9-26,88,85,83,88,85,83,100,100,100,29.82,29.75,10,4,16,0.00
2013-9-27,87,84,81,87,84,81,100,100,100,29.83,29.74,8,4,12,0.05
2013-9-28,87,84,78,87,84,78,100,100,100,29.86,29.77,8,2,16,0.00
2013-9-29,86,82,78,86,82,78,100,100,100,29.86,29.78,9,2,12,0.00
2013-9-30,87,83,78,87,83,78,100,100,100,29.89,29.80,9,4,13,0.18
2013-10-1,87,84,76,87,84,76,100,100,100,29.93,29.83,11,5,14,0.22
2013-10-2,86,82,76,86,82,76,100,100,100,29.92,29.84,6,2,12,0.20
2013-10-3,87,84,80,87,84,80,100,100,100,29.94,29.83,8,4,16,0.00
2013-10-4,86,83,82,86,83,82,100,100,100,29.94,29.87,8,5,12,0.00
2013-10-5,85,82,80,85,82,80,100,100,100,29.92,29.83,8,3,12,0.00
2013-10-6,87,83,80,87,83,80,100,100,100,29.89,29.79,4,0,8,0.00
2013-10-7,86,84,82,86,84,82,100,100,100,29.84,29.75,9,3,16,0.00
2013-10-8,87,83,80,87,83,80,100,100,100,29.87,29.77,8,3,16,0.00
2013-10-9,85,82,80,85,82,80,100,100,100,29.90,29.83,3,0,7,0.00
2013-10-10,86,82,78,86,82,78,100,100,100,29.92,29.84,9,4,17,0.00
2013-10-11,85,82,79,85,81,-100,100,99,100,29.91,29.83,10,5,17,0.00
2013-10-12,85,82,78,85,82,78,100,100,100,29.94,29.85,8,4,14,0.00
2013-10-13,84,81,78,84,81,78,100,100,100,29.95,29.86,8,4,13,0.00
2013-10-14,84,80,78,84,80,78,100,100,100,29.91,29.80,9,4,13,0.00
2013-10-15,84,80,78,84,80,78,100,100,100,29.86,29.78,9,3,13,0.00
2013-10-16,85,80,77,85,80,77,100,100,100,29.86,29.79,7,2,11,0.01
2013-10-17,86,81,75,86,81,75,100,100,100,29.88,29.80,6,2,10,0.07
2013-10-18,85,82,79,85,82,79,100,100,100,29.88,29.80,9,4,12,0.00
2013-10-19,86,83,81,86,83,81,100,100,100,29.87,29.80,6,2,11,0.00
2013-10-20,86,83,81,86,83,81,100,100,100,29.88,29.78,6,2,8,0.00
2013-10-21,87,84,82,87,84,82,100,100,100,29.92,29.83,6,2,10,0.00
2013-10-22,87,84,82,87,84,82,100,100,100,29.87,29.77,5,2,8,0.00
2013-10-23,86,83,80,86,83,80,100,100,100,29.86,29.74,8,2,13,0.00
2013-10-24,82,79,77,82,79,77,100,100,100,29.98,29.82,12,8,18,0.02
2013-10-25,81,78,75,81,78,75,100,100,100,30.04,29.94,13,10,19,0.00
2013-10-26,82,77,75,82,77,75,100,100,100,30.03,29.95,11,7,18,0.00
2013-10-27,81,77,74,81,77,74,100,100,100,29.99,29.91,11,6,20,0.00
2013-10-28,82,79,75,82,79,75,100,100,100,30.03,29.93,10,5,20,0.00
2013-10-29,83,79,75,83,79,75,100,100,100,30.07,29.97,12,6,21,0.00
2013-10-30,82,80,77,82,80,77,100,100,100,30.06,29.96,11,7,20,0.00
2013-10-31,84,81,79,84,81,79,100,100,100,30.00,29.89,9,5,19,0.00
2013-11-1,84,80,78,84,80,78,100,100,100,29.91,29.81,5,1,12,0.01
2013-11-2,79,78,78,79,78,78,100,100,100,29.86,29.84,0,0,0,0.00
2013-11-6,81,79,77,81,79,77,100,100,100,29.93,29.86,11,6,13,0.08
2013-11-7,81,78,76,81,78,76,100,100,100,29.92,29.83,8,4,12,0.00
2013-11-8,82,78,74,82,77,-100,100,99,100,29.92,29.84,12,8,19,0.00
2013-11-9,83,79,76,83,79,76,100,100,100,29.98,29.89,10,6,14,0.09
2013-11-10,82,78,74,82,78,74,100,100,100,30.00,29.92,11,5,16,1.50
2013-11-11,83,78,76,83,78,76,100,100,100,29.99,29.92,12,6,17,0.00
2013-11-12,83,79,76,83,79,76,100,100,100,29.97,29.86,9,4,14,0.00
2013-11-13,78,75,72,78,75,72,100,100,100,30.05,29.89,18,11,26,0.00
2013-11-14,77,75,73,77,75,73,100,100,100,30.08,29.99,15,11,24,0.00
2013-11-15,79,77,74,79,77,74,100,100,100,30.01,29.89,13,9,20,0.18
2013-11-16,82,79,77,82,79,77,100,100,100,29.97,29.88,11,8,17,0.01
2013-11-17,82,80,78,82,80,78,100,100,100,29.97,29.89,8,5,13,0.00
2013-11-18,83,79,77,83,79,77,100,100,100,29.92,29.83,6,2,8,0.00
2013-11-19,82,78,76,82,78,76,100,100,100,29.86,29.78,4,1,7,0.00
2013-11-20,82,78,75,82,77,-100,100,99,100,29.96,29.83,5,1,7,0.00
2013-11-21,82,80,77,82,80,77,100,100,100,30.02,29.94,8,3,13,0.00
2013-11-22,79,77,74,79,76,-100,100,99,100,30.02,29.94,12,4,16,0.57
2013-11-23,81,78,76,81,77,-100,100,99,100,29.96,29.87,10,5,18,0.02
2013-11-24,81,77,74,81,77,74,100,100,100,30.01,29.88,12,4,18,0.00
2013-11-25,78,75,71,78,75,71,100,100,100,30.04,29.92,16,11,26,0.49
2013-11-26,82,79,77,82,79,77,100,100,100,29.92,29.76,11,8,20,0.15
2013-11-27,80,74,67,80,74,67,100,100,100,30.01,29.74,16,8,21,1.98
2013-11-28,71,64,57,71,64,57,100,100,100,30.13,30.01,14,9,20,0.00
2013-11-29,74,70,66,74,69,-100,100,99,100,30.14,30.05,12,8,19,0.00
2013-11-30,75,71,66,75,71,66,100,100,100,30.09,29.99,12,8,19,0.00
2013-12-1,75,72,69,75,72,69,100,100,100,30.01,29.88,9,5,14,0.00
2013-12-2,70,68,67,70,68,67,100,100,100,29.88,29.81,7,2,8,0.00
2013-12-4,81,78,75,81,78,75,100,100,100,29.99,29.92,5,2,9,0.00
2013-12-5,81,78,76,81,78,76,100,100,100,30.06,29.96,6,3,12,0.00
2013-12-6,81,78,76,81,78,76,100,100,100,30.07,29.97,11,6,19,0.02
2013-12-7,81,78,76,81,78,76,100,100,100,30.10,30.03,9,3,12,0.00
2013-12-8,81,78,75,81,74,-100,100,98,100,30.09,30.01,9,6,17,0.00
2013-12-9,81,79,76,81,79,76,100,100,100,30.08,29.99,12,6,16,0.00
2013-12-10,82,79,77,82,79,77,100,100,100,30.05,29.98,7,3,12,0.00
2013-12-11,80,77,74,80,75,-100,100,99,100,30.09,30.00,11,2,13,0.61
2013-12-12,80,76,70,80,76,70,100,100,100,30.11,30.01,14,5,20,0.30
2013-12-13,78,75,70,78,75,70,100,100,100,30.06,29.96,13,9,21,0.07
2013-12-14,81,79,75,81,79,75,100,100,100,29.99,29.89,11,8,18,0.00
2013-12-15,83,79,76,83,79,76,100,100,100,29.98,29.87,7,3,13,0.08
2013-12-16,76,72,69,76,72,69,100,100,100,30.06,29.94,12,7,18,0.00
2013-12-17,77,71,68,77,71,68,100,100,100,30.08,29.98,11,6,19,0.00
2013-12-18,74,72,69,74,72,69,100,100,100,30.13,30.03,12,8,19,0.00
2013-12-19,76,72,68,76,72,68,100,100,100,30.12,30.02,11,7,16,0.00
2013-12-20,79,78,76,79,78,76,100,100,100,30.06,29.98,10,7,17,0.00
2013-12-21,80,78,77,80,78,77,100,100,100,30.03,29.94,13,9,17,0.00
2013-12-22,81,79,78,81,79,78,100,100,100,30.05,29.96,13,8,18,0.00
2013-12-23,81,79,77,81,79,77,100,100,100,30.08,30.01,10,5,18,0.00
2013-12-24,79,76,69,79,76,69,100,100,100,30.08,29.97,15,4,24,0.00
2013-12-25,77,72,69,77,72,69,100,100,100,30.04,29.97,12,7,24,0.40
2013-12-26,78,76,74,78,76,74,100,100,100,30.05,29.95,9,4,13,0.04
2013-12-27,80,77,74,80,77,74,100,100,100,30.06,29.97,10,5,16,0.01
2013-12-28,80,78,77,80,78,77,100,100,100,30.04,29.92,10,8,16,0.00
2013-12-29,79,78,75,79,78,75,100,100,100,29.97,29.87,12,5,19,0.01
2013-12-30,78,75,74,78,75,74,100,100,100,30.03,29.89,7,1,9,0.00
2013-12-31,77,74,70,77,74,70,100,100,100,30.09,29.99,12,7,21,0.00
2014-1-1,81,78,75,81,78,75,100,100,100,30.06,29.95,11,7,17,0.00
2014-1-2,82,78,75,82,77,-100,100,99,100,29.95,29.82,11,4,18,0.00